METAR AND TAF INFORMATION
METAR FOR LIML
ADDS - METARS form results

(2205 UTC 20 February 2020)
Data provider http://aviationweather.gov/metar/data/
 
METAR text: LIML 202150Z 36004KT CAVOK 03/M01 Q1023 NOSIG
Conditions at: LIML (MILANO/LINATE , IT) observed 2150 UTC 20 February 2020
Temperature: 3.0°C (37°F)
Dewpoint: -1.0°C (30°F) [RH = 75%]
Pressure (altimeter): 30.21 inches Hg (1023.0 mb)
Winds: from the N (360 degrees) at 5 MPH (4 knots; 2.1 m/s)
Visibility: 6 or more miles (10+ km)
Ceiling: ceiling and visibility are OK
Clouds: unknown
Weather: no significant weather observed at this time

METAR text: LIML 202120Z 02002KT CAVOK 04/M00 Q1023 NOSIG
Conditions at: LIML (MILANO/LINATE , IT) observed 2120 UTC 20 February 2020
Temperature: 4.0°C (39°F)
Dewpoint: 0.0°C (32°F) [RH = 75%]
Pressure (altimeter): 30.21 inches Hg (1023.0 mb)
Winds: from the NNE (20 degrees) at 2 MPH (2 knots; 1.0 m/s)
Visibility: 6 or more miles (10+ km)
Ceiling: ceiling and visibility are OK
Clouds: unknown
Weather: no significant weather observed at this time

Forecast for: LIML (MILANO/LINATE , IT)
Text: TAF LIML 201700Z 2018/2118 VRB05KT CAVOK
Forecast period: 1800 UTC 20 February 2020 to 1800 UTC 21 February 2020
Forecast type: FROM: standard forecast or significant change
Winds: variable direction winds at 6 MPH (5 knots; 2.6 m/s)
Visibility: 6 or more miles 10+ km)
Ceiling: unknown
Clouds: missing
Weather: NSW  (no significant weather)
Text: TEMPO 2102/2106 3000 BR
Forecast period: 0200 to 0600 UTC 21 February 2020
Forecast type: TEMPORARY: The following changes expected for less than half the time period
Visibility: 1.86 miles (2.99 km)
Ceiling: unknown
Clouds: missing
Weather: BR  (mist)

 AIRPORT MAP

 RUNWAY INFORMATION
Runway 18L Runway length 8005 ft Runway width 197 ft
Runway elevation 353 ft Runway displaced threshold 0 ft Runway heading 176
Runway 36R Runway length 8005 ft Runway width 197 ft
Runway elevation 337 ft Runway displaced threshold 0 ft Runway heading 356
Runway 18R Runway length 1972 ft Runway width 72 ft
Runway elevation 353 ft Runway displaced threshold 0 ft Runway heading 176
Runway 36L Runway length 1972 ft Runway width 72 ft
Runway elevation 349 ft Runway displaced threshold 0 ft Runway heading 356

 AIRPORT FREQUENCIES
Type APP Name MILANO APP Frequency 132.7 MHZ
Type ATIS Name ATIS Frequency 135.55 MHZ
Type DEP Name MILANO DEP Frequency 126.75 MHZ
Type GND Name GND Frequency 121.8 MHZ
Type TWR Name TWR Frequency 118.1 MHZ

 AIRPORT NEAR NAVIGATION AIDS
Type VOR-DME Name Linate Frequency 112250 KHZ
Type NDB Name Linate Frequency 386 KHZ



Powered by Virtual Airlines Manager [v2.6.2]